Data for 03/29/2010

Time Sea-Level Adjusted Pressure Absolute Pressure Temperature Relative Humidity Dew Point   
(mb) (inHg) (mb) (inHg) (C) (F) (%) (C) (F)
00:05 1014 29.94 843 24.89 8.9 47.9 32 -6.8 19.7
00:10 1014 29.94 843 24.89 8.8 47.8 33 -6.6 20.1
00:15 1013 29.91 843 24.89 8.4 47.1 37 -5.3 22.4
00:20 1013 29.91 843 24.89 7.7 45.9 37 -6 21.2
00:25 1014 29.94 843 24.89 7.7 45.8 37 -6.2 20.9
00:30 1014 29.94 843 24.89 7.8 46.1 36 -6.3 20.6
00:35 1013 29.91 843 24.89 7.8 46.1 37 -5.9 21.4
00:40 1013 29.91 843 24.89 7.4 45.4 38 -5.9 21.5
00:45 1013 29.91 843 24.89 7.3 45.1 38 -6 21.2
00:50 1013 29.91 843 24.89 7.2 44.9 39 -6 21.2
00:55 1013 29.91 843 24.89 7.1 44.8 38 -6.1 21
01:00 1013 29.91 843 24.89 7.1 44.8 39 -6.1 21.1
01:05 1013 29.91 842 24.86 7.3 45.1 38 -6 21.1
01:10 1013 29.91 842 24.86 7.6 45.6 37 -6.3 20.7
01:15 1013 29.91 842 24.86 7.8 46.1 36 -6.4 20.5
01:20 1013 29.91 842 24.86 7.9 46.2 36 -6.4 20.6
01:25 1013 29.91 842 24.86 8.1 46.6 38 -5.5 22.1
01:30 1013 29.91 842 24.86 8 46.5 36 -6.2 20.9
01:35 1013 29.91 842 24.86 8 46.5 36 -6.1 21
01:40 1013 29.91 842 24.86 8.2 46.8 35 -6.2 20.9
01:45 1013 29.91 842 24.86 8.3 47 35 -6.3 20.7
01:50 1013 29.91 842 24.86 8.3 47 35 -6.2 20.9
01:55 1013 29.91 842 24.86 8.3 47 35 -6.3 20.6
02:00 1012 29.88 842 24.86 8.3 46.9 34 -6.5 20.3
02:05 1012 29.88 842 24.86 8.4 47 34 -6.5 20.2
02:10 1012 29.88 842 24.86 8.6 47.4 34 -6.4 20.4
02:15 1012 29.88 841 24.83 8.6 47.5 34 -6.4 20.4
02:20 1012 29.88 841 24.83 8.7 47.7 35 -6 21.3
02:25 1012 29.88 841 24.83 8.5 47.3 35 -6.1 21.1
02:30 1012 29.88 841 24.83 8.5 47.3 34 -6.3 20.6
02:35 1012 29.88 841 24.83 8.7 47.7 34 -6.3 20.7
02:40 1012 29.88 841 24.83 8.8 47.9 33 -6.4 20.5
02:45 1012 29.88 841 24.83 8.9 48 35 -5.9 21.3
02:50 1012 29.88 841 24.83 8.6 47.5 35 -6 21.1
02:55 1012 29.88 841 24.83 8.8 47.8 34 -6.2 20.9
03:00 1012 29.88 841 24.83 8.9 48 33 -6.6 20.2
03:05 1011 29.85 841 24.83 9.2 48.6 33 -6.3 20.7
03:10 1011 29.85 840 24.81 9.1 48.5 33 -6.4 20.4
03:15 1011 29.85 840 24.81 8.9 48.1 34 -6.1 21.1
03:20 1011 29.85 840 24.81 8.7 47.7 34 -6.1 21
03:25 1011 29.85 840 24.81 8.6 47.4 35 -6.2 20.9
03:30 1011 29.85 840 24.81 8.6 47.5 34 -6.6 20.2
03:35 1011 29.85 840 24.81 8.9 47.9 33 -6.5 20.4
03:40 1011 29.85 840 24.81 9 48.2 32 -6.7 19.9
03:45 1011 29.85 840 24.81 9.3 48.7 32 -6.4 20.5
03:50 1011 29.85 840 24.81 9.1 48.4 33 -6.2 20.9
03:55 1011 29.85 840 24.81 8.9 48.1 34 -6.2 20.9
04:00 1011 29.85 840 24.81 9 48.2 33 -6.4 20.4
04:05 1011 29.85 840 24.81 9.2 48.5 33 -6.3 20.6
04:10 1011 29.85 840 24.81 9.2 48.6 33 -6.2 20.9
04:15 1011 29.85 840 24.81 9.2 48.5 33 -6.4 20.5
04:20 1011 29.85 840 24.81 9.3 48.7 32 -6.4 20.4
04:25 1011 29.85 840 24.81 9.3 48.8 32 -6.4 20.5
04:30 1011 29.85 840 24.81 9.4 48.9 32 -6.5 20.3
04:35 1011 29.85 840 24.81 9.4 48.9 32 -6.5 20.3
04:40 1010 29.83 840 24.81 9.5 49.1 31 -6.6 20
04:45 1010 29.83 840 24.81 9.6 49.2 32 -6.5 20.4
04:50 1010 29.83 839 24.78 9.4 49 32 -6.5 20.3
04:55 1010 29.83 839 24.78 9.4 49 32 -6.5 20.3
05:00 1010 29.83 839 24.78 9.4 49 32 -6.4 20.4
05:05 1010 29.83 839 24.78 9.4 48.9 33 -6.2 20.8
05:10 1010 29.83 839 24.78 9.2 48.6 33 -6.2 20.8
05:15 1010 29.83 839 24.78 9.2 48.6 33 -6.4 20.6
05:20 1010 29.83 839 24.78 9.2 48.5 31 -6.9 19.5
05:25 1010 29.83 839 24.78 9.5 49.1 31 -6.6 20.2
05:30 1010 29.83 839 24.78 9.7 49.4 31 -6.5 20.3
05:35 1010 29.83 839 24.78 9.7 49.4 33 -6 21.3
05:40 1009 29.8 839 24.78 9.4 49 33 -6.2 20.9
05:45 1009 29.8 838 24.75 9.4 48.9 33 -6 21.3
05:50 1009 29.8 838 24.75 9.2 48.5 34 -5.9 21.4
05:55 1009 29.8 838 24.75 9.2 48.6 33 -6.2 20.9
06:00 1009 29.8 838 24.75 9.2 48.6 33 -6.3 20.6
06:05 1009 29.8 838 24.75 9.2 48.6 33 -6 21.2
06:10 1009 29.8 838 24.75 9.3 48.8 33 -6.3 20.7
06:15 1009 29.8 838 24.75 9.4 49 32 -6.4 20.4
06:20 1009 29.8 838 24.75 9.4 48.9 33 -6 21.1
06:25 1009 29.8 838 24.75 9.2 48.6 33 -6 21.1
06:30 1009 29.8 838 24.75 9.3 48.8 34 -5.8 21.6
06:35 1009 29.8 838 24.75 9.2 48.6 34 -5.8 21.5
06:40 1009 29.8 838 24.75 9.2 48.5 34 -5.8 21.5
06:45 1008 29.77 838 24.75 9.3 48.7 34 -5.7 21.7
06:50 1008 29.77 838 24.75 9.3 48.8 34 -5.7 21.7
06:55 1009 29.8 838 24.75 9.3 48.7 34 -5.7 21.7
07:00 1008 29.77 838 24.75 8.9 48.1 35 -5.6 22
07:05 1008 29.77 838 24.75 8.8 47.8 35 -5.7 21.7
07:10 1008 29.77 838 24.75 8.9 48.1 34 -6.2 20.8
07:15 1008 29.77 838 24.75 9.3 48.8 32 -6.4 20.5
07:20 1008 29.77 838 24.75 9.6 49.4 32 -6.4 20.4
07:25 1008 29.77 838 24.75 9.7 49.5 32 -6.3 20.6
07:30 1008 29.77 838 24.75 9.8 49.6 30 -6.8 19.8
07:35 1008 29.77 837 24.72 9.8 49.6 32 -6.3 20.7
07:40 1008 29.77 837 24.72 9.5 49.2 32 -6.3 20.7
07:45 1008 29.77 837 24.72 9.5 49 32 -6.3 20.7
07:50 1008 29.77 838 24.75 9.3 48.8 33 -6.3 20.7
07:55 1008 29.77 837 24.72 9.3 48.7 33 -6.1 21.1
08:00 1008 29.77 837 24.72 9 48.3 34 -6 21.2
08:05 1008 29.77 837 24.72 9 48.2 34 -5.8 21.5
08:10 1008 29.77 837 24.72 9.2 48.6 33 -6.2 20.8
08:15 1008 29.77 837 24.72 9.5 49.2 32 -6.3 20.7
08:20 1008 29.77 837 24.72 9.6 49.4 32 -6.4 20.4
08:25 1008 29.77 837 24.72 9.9 49.8 31 -6.5 20.3
08:30 1008 29.77 837 24.72 10.2 50.3 30 -6.6 20.1
08:35 1008 29.77 837 24.72 10.1 50.3 30 -6.4 20.4
08:40 1008 29.77 837 24.72 10 49.9 33 -5.7 21.7
08:45 1008 29.77 837 24.72 9.8 49.6 33 -5.7 21.7
08:50 1008 29.77 837 24.72 10.1 50.1 32 -5.9 21.4
08:55 1008 29.77 837 24.72 10 49.9 34 -5.1 22.9
09:00 1008 29.77 837 24.72 9.7 49.5 35 -4.9 23.2
09:05 1008 29.77 837 24.72 9.8 49.6 35 -5 22.9
09:10 1008 29.77 837 24.72 9.8 49.7 34 -5.4 22.3
09:15 1008 29.77 837 24.72 9.8 49.6 35 -5 23
09:20 1008 29.77 837 24.72 10.1 50.2 34 -5.1 22.9
09:25 1007 29.74 837 24.72 10.1 50.1 33 -5.3 22.5
09:30 1008 29.77 837 24.72 10.4 50.7 32 -5.6 22
09:35 1008 29.77 837 24.72 10.4 50.8 33 -5.2 22.6
09:40 1008 29.77 837 24.72 10.4 50.7 33 -5.3 22.4
09:45 1008 29.77 837 24.72 10 50 37 -3.8 25.1
09:50 1008 29.77 837 24.72 10 49.9 34 -5.2 22.7
09:55 1008 29.77 837 24.72 10.3 50.6 33 -5.2 22.7
10:00 1008 29.77 837 24.72 10.5 50.9 34 -4.6 23.6
10:05 1008 29.77 837 24.72 10 50.1 36 -4.2 24.5
10:10 1008 29.77 837 24.72 9.9 49.9 37 -4.2 24.5
10:15 1008 29.77 837 24.72 9.7 49.4 38 -4.1 24.7
10:20 1008 29.77 837 24.72 9.8 49.6 39 -3.4 25.8
10:25 1008 29.77 837 24.72 9.7 49.5 37 -4.4 24.1
10:30 1007 29.74 837 24.72 10.2 50.4 36 -4.2 24.5
10:35 1007 29.74 836 24.69 10.3 50.6 36 -3.9 24.9
10:40 1007 29.74 836 24.69 10.2 50.3 36 -4.1 24.7
10:45 1007 29.74 836 24.69 10.5 50.9 36 -3.9 24.9
10:50 1007 29.74 836 24.69 10.6 51.1 36 -3.8 25.2
10:55 1007 29.74 836 24.69 10.7 51.3 36 -3.7 25.4
11:00 1007 29.74 836 24.69 10.7 51.2 36 -3.7 25.3
11:05 1007 29.74 836 24.69 10.6 51.2 36 -3.7 25.3
11:10 1007 29.74 836 24.69 10.7 51.2 37 -3.2 26.2
11:15 1007 29.74 836 24.69 10.4 50.7 39 -2.9 26.7
11:20 1007 29.74 836 24.69 10.5 50.8 38 -3.2 26.2
11:25 1007 29.74 836 24.69 10.6 51.1 38 -3.2 26.2
11:30 1007 29.74 836 24.69 10.7 51.2 38 -3.2 26.3
11:35 1007 29.74 836 24.69 10.7 51.2 37 -3.4 25.9
11:40 1007 29.74 836 24.69 10.9 51.5 36 -3.5 25.6
11:45 1007 29.74 836 24.69 10.8 51.5 37 -3.3 26.1
11:50 1007 29.74 836 24.69 10.8 51.4 37 -3.3 26
11:55 1007 29.74 836 24.69 10.7 51.3 38 -3 26.5
12:00 1007 29.74 836 24.69 10.6 51.1 39 -2.9 26.8
12:05 1007 29.74 836 24.69 10.4 50.8 40 -2.6 27.3
12:10 1007 29.74 836 24.69 10.4 50.7 38 -3.1 26.3
12:15 1006 29.71 835 24.66 10.4 50.6 41 -2.4 27.7
12:20 1006 29.71 835 24.66 10 50 42 -2.4 27.7
12:25 1006 29.71 835 24.66 10 50.1 41 -2.5 27.6
12:30 1006 29.71 835 24.66 10 50 42 -2.4 27.7
12:35 1006 29.71 835 24.66 10 49.9 44 -1.7 28.9
12:40 1006 29.71 835 24.66 10.1 50.1 42 -2.4 27.7
12:45 1006 29.71 835 24.66 10 50 44 -1.8 28.8
12:50 1006 29.71 835 24.66 9.8 49.7 43 -2 28.4
12:55 1006 29.71 835 24.66 9.7 49.5 46 -1.4 29.4
13:00 1006 29.71 835 24.66 9.7 49.5 45 -1.5 29.3
13:05 1006 29.71 835 24.66 9.8 49.6 45 -1.6 29.2
13:10 1006 29.71 835 24.66 9.9 49.7 44 -1.9 28.7
13:15 1006 29.71 835 24.66 9.8 49.6 46 -1.3 29.7
13:20 1006 29.71 835 24.66 9.6 49.2 47 -1.3 29.7
13:25 1006 29.71 835 24.66 9.4 48.9 45 -2 28.4
13:30 1006 29.71 835 24.66 9.5 49.1 46 -1.5 29.4
13:35 1006 29.71 835 24.66 9.5 49 44 -2 28.4
13:40 1006 29.71 835 24.66 9.4 48.9 44 -2.1 28.2
13:45 1005 29.68 835 24.66 9.4 48.9 45 -1.8 28.7
13:50 1005 29.68 835 24.66 9.2 48.6 46 -1.7 28.9
13:55 1005 29.68 835 24.66 9.1 48.3 45 -2 28.3
14:00 1006 29.71 835 24.66 9 48.3 48 -1.5 29.3
14:05 1005 29.68 835 24.66 8.9 47.9 48 -1.6 29.1
14:10 1005 29.68 835 24.66 8.9 48 47 -1.6 29.1
14:15 1005 29.68 834 24.63 8.9 48.1 46 -2 28.5
14:20 1005 29.68 834 24.63 9 48.2 47 -1.7 28.9
14:25 1005 29.68 834 24.63 9 48.2 46 -1.9 28.6
14:30 1005 29.68 834 24.63 9.1 48.3 46 -1.8 28.7
14:35 1005 29.68 834 24.63 9.2 48.6 45 -2.2 28
14:40 1005 29.68 834 24.63 9.4 49 45 -1.8 28.7
14:45 1004 29.65 834 24.63 9.8 49.6 42 -2.5 27.5
14:50 1004 29.65 834 24.63 10.1 50.2 42 -2 28.3
14:55 1004 29.65 833 24.6 10.6 51 40 -2.4 27.7
15:00 1004 29.65 833 24.6 11.2 52.1 40 -2 28.4
15:05 1004 29.65 833 24.6 11.1 51.9 39 -2.4 27.8
15:10 1004 29.65 833 24.6 11.3 52.4 38 -2.4 27.7
15:15 1004 29.65 833 24.6 11.2 52.2 37 -2.9 26.7
15:20 1004 29.65 833 24.6 11.5 52.7 36 -3 26.5
15:25 1004 29.65 833 24.6 11.8 53.3 37 -2.5 27.5
15:30 1004 29.65 833 24.6 12.1 53.7 35 -3 26.5
15:35 1004 29.65 833 24.6 11.9 53.4 36 -2.8 27
15:40 1004 29.65 833 24.6 12.2 53.9 34 -3 26.5
15:45 1003 29.62 833 24.6 12.2 53.9 35 -2.6 27.2
15:50 1003 29.62 833 24.6 12.2 54 34 -3.3 26.1
15:55 1003 29.62 832 24.57 11.9 53.3 36 -2.7 27.2
16:00 1003 29.62 832 24.57 11.8 53.3 37 -2.4 27.8
16:05 1003 29.62 832 24.57 11.7 53.1 36 -2.9 26.7
16:10 1003 29.62 832 24.57 11.6 52.9 36 -3 26.6
16:15 1003 29.62 832 24.57 11.5 52.7 36 -2.8 26.9
16:20 1002 29.59 832 24.57 11.4 52.5 36 -3 26.6
16:25 1002 29.59 832 24.57 11.4 52.4 36 -3.2 26.3
16:30 1002 29.59 832 24.57 11.3 52.3 36 -3.3 26
16:35 1002 29.59 832 24.57 11.2 52.2 36 -3.1 26.4
16:40 1002 29.59 832 24.57 11.2 52.1 36 -3.1 26.4
16:45 1002 29.59 831 24.54 11 51.8 37 -2.9 26.7
16:50 1002 29.59 831 24.54 11.1 52.1 37 -3 26.6
16:55 1002 29.59 831 24.54 11.2 52.2 35 -3.7 25.4
17:00 1002 29.59 831 24.54 11.3 52.3 37 -2.7 27.1
17:05 1002 29.59 831 24.54 11.3 52.4 36 -3.1 26.4
17:10 1002 29.59 831 24.54 11.4 52.5 37 -2.8 27
17:15 1002 29.59 831 24.54 11.4 52.5 35 -3.3 26
17:20 1002 29.59 831 24.54 11.5 52.6 36 -3.2 26.3
17:25 1002 29.59 831 24.54 11.4 52.6 35 -3.4 25.9
17:30 1002 29.59 831 24.54 11.4 52.6 36 -3.2 26.2
17:35 1002 29.59 831 24.54 11.4 52.5 37 -2.9 26.8
17:40 1002 29.59 831 24.54 11.3 52.4 36 -3 26.6
17:45 1002 29.59 831 24.54 11.4 52.5 35 -3.6 25.6
17:50 1002 29.59 831 24.54 11.3 52.4 36 -3.1 26.5
17:55 1002 29.59 831 24.54 11.2 52.1 36 -3.2 26.2
18:00 1002 29.59 831 24.54 11 51.9 36 -3.5 25.7
18:05 1002 29.59 831 24.54 10.9 51.6 37 -3.1 26.4
18:10 1002 29.59 831 24.54 10.9 51.6 38 -2.7 27.2
18:15 1001 29.56 831 24.54 10.8 51.5 38 -3.1 26.5
18:20 1001 29.56 831 24.54 10.8 51.4 39 -2.7 27.2
18:25 1001 29.56 831 24.54 10.7 51.3 36 -3.7 25.3
18:30 1001 29.56 830 24.51 10.5 50.9 39 -2.9 26.8
18:35 1001 29.56 830 24.51 10.4 50.6 37 -3.5 25.7
18:40 1001 29.56 830 24.51 10.3 50.5 38 -3.3 26
18:45 1001 29.56 830 24.51 10.2 50.3 39 -3.2 26.2
18:50 1001 29.56 830 24.51 10 49.9 39 -3.3 26.1
18:55 1001 29.56 830 24.51 10 49.9 39 -3.5 25.8
19:00 1001 29.56 830 24.51 9.9 49.8 41 -2.7 27.1
19:05 1001 29.56 830 24.51 9.7 49.4 40 -3.2 26.2
19:10 1001 29.56 830 24.51 9.7 49.5 40 -3.2 26.2
19:15 1001 29.56 830 24.51 9.6 49.3 41 -3 26.7
19:20 1001 29.56 830 24.51 9.6 49.2 41 -2.9 26.9
19:25 1001 29.56 830 24.51 9.6 49.3 40 -3.1 26.3
19:30 1001 29.56 830 24.51 9.7 49.5 41 -2.9 26.7
19:35 1001 29.56 830 24.51 9.5 49.2 41 -3 26.6
19:40 1001 29.56 830 24.51 9.6 49.3 40 -3.3 26.1
19:45 1000 29.53 830 24.51 9.7 49.5 41 -2.9 26.8
19:50 1000 29.53 830 24.51 9.8 49.6 42 -2.5 27.4
19:55 1000 29.53 829 24.48 9.4 49 44 -2.3 27.9
20:00 1001 29.56 830 24.51 9.2 48.5 46 -1.7 28.9
20:05 1001 29.56 830 24.51 9.1 48.3 47 -1.6 29.1
20:10 1001 29.56 830 24.51 9 48.3 47 -1.7 29
20:15 1001 29.56 830 24.51 9 48.2 47 -1.7 28.9
20:20 1001 29.56 830 24.51 9 48.1 48 -1.4 29.4
20:25 1001 29.56 830 24.51 8.8 47.9 48 -1.6 29.2
20:30 1001 29.56 830 24.51 8.8 47.9 49 -1.2 29.9
20:35 1000 29.53 830 24.51 8.7 47.7 49 -1.3 29.6
20:40 1000 29.53 830 24.51 8.7 47.7 47 -1.8 28.7
20:45 1000 29.53 830 24.51 9 48.1 46 -2 28.3
20:50 1000 29.53 829 24.48 9.1 48.4 45 -2.1 28.2
20:55 1000 29.53 829 24.48 9.1 48.4 44 -2.6 27.4
21:00 1000 29.53 829 24.48 9.6 49.2 41 -3.2 26.3
21:05 1000 29.53 829 24.48 9.9 49.8 40 -2.9 26.7
21:10 1000 29.53 829 24.48 9.9 49.9 41 -2.6 27.3
21:15 1000 29.53 829 24.48 9.7 49.5 44 -2 28.4
21:20 1000 29.53 830 24.51 9.5 49.1 45 -2 28.5
21:25 1000 29.53 829 24.48 9.5 49.1 45 -1.8 28.7
21:30 1000 29.53 830 24.51 9.2 48.5 48 -1.1 30
21:35 1001 29.56 830 24.51 8.8 47.9 50 -1 30.2
21:40 1001 29.56 830 24.51 8.6 47.5 52 -0.6 30.9
21:45 1000 29.53 830 24.51 8.3 47 55 -0.1 31.9
21:50 1001 29.56 830 24.51 7.9 46.2 60 0.7 33.2
21:55 1000 29.53 829 24.48 7.4 45.4 60 0.1 32.3
22:00 1000 29.53 829 24.48 7.4 45.2 60 0.2 32.3
22:05 1000 29.53 829 24.48 7.3 45.2 61 0.3 32.5
22:10 1000 29.53 829 24.48 7.3 45.2 60 0 32.1
22:15 1000 29.53 829 24.48 7.4 45.3 60 0.2 32.4
22:20 999 29.5 829 24.48 7.2 44.9 61 0.2 32.4
22:25 999 29.5 828 24.45 7 44.6 62 0.2 32.4
22:30 999 29.5 828 24.45 7.1 44.7 59 -0.3 31.5
22:35 999 29.5 828 24.45 7.5 45.5 54 -1.1 30.1
22:40 999 29.5 828 24.45 7.8 46.1 56 -0.5 31.1
22:45 999 29.5 828 24.45 7.9 46.3 53 -1.1 30
22:50 999 29.5 828 24.45 8.1 46.5 52 -1.3 29.6
22:55 999 29.5 828 24.45 8.2 46.7 54 -0.7 30.8
23:00 999 29.5 828 24.45 8.1 46.5 55 -0.5 31.1
23:05 999 29.5 828 24.45 7.9 46.3 57 0 32
23:10 999 29.5 828 24.45 7.6 45.7 60 0.4 32.7
23:15 999 29.5 828 24.45 7.3 45.1 63 0.8 33.4
23:20 999 29.5 828 24.45 7 44.7 63 0.5 32.8
23:25 999 29.5 828 24.45 7 44.6 63 0.5 32.9
23:30 999 29.5 828 24.45 6.9 44.4 64 0.7 33.2
23:35 999 29.5 828 24.45 6.8 44.3 64 0.5 33
23:40 999 29.5 828 24.45 6.8 44.3 64 0.5 32.9
23:45 999 29.5 828 24.45 6.7 44 67 1 33.7
23:50 999 29.5 828 24.45 6.6 43.8 65 0.5 33
23:55 998 29.47 828 24.45 6.8 44.3 63 0.2 32.4
24:00 998 29.47 827 24.42 7.2 44.9 60 -0.1 31.9